createdAt,value
2023-12-09T00:01:01.393Z,12.52
2023-12-09T00:03:29.012Z,11.98
2023-12-09T00:05:56.478Z,11.43
2023-12-09T00:08:23.867Z,11.55
2023-12-09T00:10:51.392Z,11.68
2023-12-09T00:13:18.793Z,10.93
2023-12-09T00:15:46.104Z,9.63
2023-12-09T00:18:14.318Z,11.38
2023-12-09T00:20:41.837Z,10.98
2023-12-09T00:23:10.490Z,12.63
2023-12-09T00:25:38.106Z,11.30
2023-12-09T00:28:05.661Z,10.30
2023-12-09T00:30:33.259Z,11.10
2023-12-09T00:33:00.957Z,12.15
2023-12-09T00:35:28.468Z,11.93
2023-12-09T00:37:55.741Z,9.82
2023-12-09T00:40:23.861Z,11.45
2023-12-09T00:42:51.109Z,10.48
2023-12-09T00:45:18.619Z,10.63
2023-12-09T00:47:46.090Z,11.32
2023-12-09T00:50:13.576Z,9.98
2023-12-09T00:52:40.839Z,10.00
2023-12-09T00:55:08.611Z,9.57
2023-12-09T00:57:35.849Z,12.00
2023-12-09T01:00:05.618Z,10.45
2023-12-09T01:02:33.471Z,10.10
2023-12-09T01:05:00.841Z,10.43
2023-12-09T01:07:28.456Z,10.57
2023-12-09T01:09:55.790Z,10.45
2023-12-09T01:12:23.179Z,11.32
2023-12-09T01:14:50.673Z,10.13
2023-12-09T01:17:18.172Z,9.63
2023-12-09T01:19:45.605Z,12.32
2023-12-09T01:22:13.713Z,10.15
2023-12-09T01:24:41.129Z,11.27
2023-12-09T01:27:08.524Z,10.70
2023-12-09T01:29:37.811Z,9.57
2023-12-09T01:32:05.364Z,10.27
2023-12-09T01:34:32.915Z,10.52
2023-12-09T01:37:00.656Z,10.50
2023-12-09T01:39:28.701Z,11.30
2023-12-09T01:41:57.463Z,10.80
2023-12-09T01:44:24.702Z,10.20
2023-12-09T01:46:52.242Z,9.93
2023-12-09T01:49:19.625Z,9.60
2023-12-09T01:51:47.275Z,10.10
2023-12-09T01:54:15.856Z,9.45
2023-12-09T01:56:43.594Z,9.65
2023-12-09T01:59:10.874Z,9.60
2023-12-09T02:01:39.072Z,9.07
2023-12-09T02:04:07.495Z,9.15
2023-12-09T02:06:35.246Z,9.15
2023-12-09T02:09:03.386Z,9.05
2023-12-09T02:11:36.524Z,9.20
2023-12-09T02:14:12.276Z,9.25
2023-12-09T02:16:45.353Z,10.07
2023-12-09T02:19:14.700Z,9.85
2023-12-09T02:22:05.005Z,8.55
2023-12-09T02:24:33.515Z,8.60
2023-12-09T02:29:53.994Z,8.90
2023-12-09T02:32:23.751Z,7.28
2023-12-09T02:34:53.431Z,8.20
2023-12-09T02:37:22.771Z,8.18
2023-12-09T02:39:50.395Z,8.15
2023-12-09T02:42:19.121Z,7.65
2023-12-09T02:44:46.966Z,9.18
2023-12-09T02:47:15.840Z,8.27
2023-12-09T02:49:44.378Z,8.95
2023-12-09T02:52:12.488Z,9.05
2023-12-09T02:54:39.969Z,9.95
2023-12-09T02:57:07.325Z,8.65
2023-12-09T02:59:35.519Z,8.82
2023-12-09T03:02:02.763Z,9.32
2023-12-09T03:04:30.354Z,8.50
2023-12-09T03:06:59.015Z,9.10
2023-12-09T03:09:26.462Z,9.00
2023-12-09T03:11:56.003Z,8.63
2023-12-09T03:14:25.179Z,8.05
2023-12-09T03:16:52.439Z,8.75
2023-12-09T03:19:19.872Z,8.63
2023-12-09T03:21:47.204Z,8.02
2023-12-09T03:24:14.604Z,8.80
2023-12-09T03:26:41.854Z,9.10
2023-12-09T03:29:09.255Z,7.53
2023-12-09T03:31:42.196Z,8.75
2023-12-09T03:34:09.878Z,7.97
2023-12-09T03:39:05.202Z,7.55
2023-12-09T03:41:32.464Z,8.35
2023-12-09T03:44:00.086Z,8.30
2023-12-09T03:46:27.333Z,8.38
2023-12-09T03:51:22.344Z,8.10
2023-12-09T03:53:50.129Z,8.75
2023-12-09T03:56:23.264Z,8.90
2023-12-09T03:58:51.705Z,7.38
2023-12-09T04:03:47.098Z,8.07
2023-12-09T04:06:14.414Z,8.00
2023-12-09T04:08:41.878Z,8.38
2023-12-09T04:11:09.250Z,8.23
2023-12-09T04:13:36.924Z,7.53
2023-12-09T04:16:06.008Z,8.48
2023-12-09T04:18:33.604Z,8.48
2023-12-09T04:21:01.128Z,7.82
2023-12-09T04:23:28.498Z,7.53
2023-12-09T04:25:55.803Z,8.52
2023-12-09T04:28:23.417Z,8.02
2023-12-09T04:30:50.645Z,8.48
2023-12-09T04:33:18.089Z,6.95
2023-12-09T04:35:45.433Z,7.55
2023-12-09T04:38:12.928Z,7.75
2023-12-09T04:40:40.390Z,7.80
2023-12-09T04:43:08.009Z,7.88
2023-12-09T04:45:35.455Z,9.30
2023-12-09T04:48:04.981Z,9.35
2023-12-09T04:50:32.465Z,8.70
2023-12-09T04:52:59.761Z,7.88
2023-12-09T04:55:27.931Z,7.97
2023-12-09T04:57:56.030Z,7.65
2023-12-09T05:00:23.398Z,7.60
2023-12-09T05:02:52.269Z,8.02
2023-12-09T05:05:20.433Z,7.53
2023-12-09T05:07:49.086Z,7.70
2023-12-09T05:10:16.685Z,7.50
2023-12-09T05:12:44.028Z,7.93
2023-12-09T05:15:12.314Z,8.20
2023-12-09T05:17:39.748Z,7.75
2023-12-09T05:20:08.148Z,8.35
2023-12-09T05:22:35.416Z,7.50
2023-12-09T05:25:03.815Z,7.32
2023-12-09T05:29:58.550Z,8.65
2023-12-09T05:32:26.081Z,7.22
2023-12-09T05:34:53.697Z,7.53
2023-12-09T05:37:23.017Z,8.55
2023-12-09T05:39:50.549Z,8.40
2023-12-09T05:42:18.008Z,7.75
2023-12-09T05:44:45.407Z,7.40
2023-12-09T05:47:12.810Z,8.38
2023-12-09T05:49:40.345Z,7.72
2023-12-09T05:52:07.654Z,21.75
2023-12-09T05:54:38.408Z,11.15
2023-12-09T05:57:06.425Z,9.90
2023-12-09T05:59:33.654Z,8.00
2023-12-09T06:02:01.271Z,8.63
2023-12-09T06:04:28.633Z,8.73
2023-12-09T06:06:56.104Z,8.30
2023-12-09T06:09:23.608Z,9.82
2023-12-09T06:11:52.867Z,8.88
2023-12-09T06:14:20.157Z,9.27
2023-12-09T06:16:47.640Z,8.48
2023-12-09T06:19:15.148Z,9.25
2023-12-09T06:21:42.581Z,8.98
2023-12-09T06:24:09.973Z,9.40
2023-12-09T06:26:44.093Z,8.93
2023-12-09T06:29:16.122Z,10.65
2023-12-09T06:31:44.300Z,9.98
2023-12-09T06:34:12.203Z,9.70
2023-12-09T06:36:39.814Z,10.65
2023-12-09T06:39:07.211Z,9.45
2023-12-09T06:41:34.576Z,9.23
2023-12-09T06:44:01.940Z,9.15
2023-12-09T06:46:29.294Z,9.65
2023-12-09T06:48:56.699Z,8.65
2023-12-09T06:51:24.271Z,9.35
2023-12-09T06:53:51.596Z,9.25
2023-12-09T06:56:21.577Z,9.93
2023-12-09T06:58:49.539Z,10.23
2023-12-09T07:01:29.661Z,9.45
2023-12-09T07:03:57.658Z,9.05
2023-12-09T07:06:30.670Z,8.85
2023-12-09T07:08:58.760Z,7.97
2023-12-09T07:11:26.223Z,7.90
2023-12-09T07:13:53.630Z,8.35
2023-12-09T07:16:21.052Z,8.13
2023-12-09T07:18:52.849Z,8.80
2023-12-09T07:21:20.456Z,9.20
2023-12-09T07:23:47.842Z,7.70
2023-12-09T07:28:44.448Z,9.00
2023-12-09T07:31:12.762Z,9.00
2023-12-09T07:36:08.524Z,7.50
2023-12-09T07:38:36.143Z,7.80
2023-12-09T07:41:04.021Z,8.15
2023-12-09T07:43:33.032Z,8.65
2023-12-09T07:46:00.570Z,8.43
2023-12-09T07:48:28.988Z,8.23
2023-12-09T07:50:56.488Z,8.65
2023-12-09T07:53:24.626Z,9.38
2023-12-09T07:55:52.113Z,8.57
2023-12-09T07:58:19.519Z,8.77
2023-12-09T08:00:47.196Z,7.82
2023-12-09T08:03:14.666Z,8.38
2023-12-09T08:05:43.623Z,8.60
2023-12-09T08:08:12.562Z,8.93
2023-12-09T08:10:39.924Z,9.23
2023-12-09T08:13:09.956Z,9.95
2023-12-09T08:15:38.810Z,8.43
2023-12-09T08:18:06.521Z,10.57
2023-12-09T08:20:35.925Z,8.77
2023-12-09T08:23:04.982Z,9.50
2023-12-09T08:25:32.204Z,11.63
2023-12-09T08:27:59.612Z,10.45
2023-12-09T08:30:27.032Z,10.32
2023-12-09T08:32:54.938Z,10.98
2023-12-09T08:35:22.525Z,11.60
2023-12-09T08:37:50.296Z,12.07
2023-12-09T08:40:18.627Z,13.15
2023-12-09T08:42:47.163Z,11.20
2023-12-09T08:45:16.773Z,11.10
2023-12-09T08:47:45.718Z,11.23
2023-12-09T08:52:45.264Z,12.90
2023-12-09T08:55:12.503Z,12.93
2023-12-09T08:57:40.063Z,13.65
2023-12-09T09:00:09.805Z,12.52
2023-12-09T09:02:38.083Z,13.57
2023-12-09T09:05:06.391Z,12.70
2023-12-09T09:07:37.821Z,10.77
2023-12-09T09:10:05.877Z,11.38
2023-12-09T09:12:33.216Z,12.05
2023-12-09T09:15:04.597Z,12.82
2023-12-09T09:17:36.652Z,12.93
2023-12-09T09:20:06.993Z,13.57
2023-12-09T09:22:35.368Z,13.35
2023-12-09T09:27:30.439Z,12.68
2023-12-09T09:29:57.890Z,14.13
2023-12-09T09:32:26.016Z,14.43
2023-12-09T09:34:56.100Z,14.93
2023-12-09T09:37:24.571Z,15.80
2023-12-09T09:39:52.743Z,15.77
2023-12-09T09:42:37.977Z,16.52
2023-12-09T09:45:27.137Z,15.77
2023-12-09T09:48:00.448Z,15.82
2023-12-09T09:50:28.274Z,19.23
2023-12-09T09:52:55.730Z,24.35
2023-12-09T09:55:24.338Z,21.45
2023-12-09T09:57:52.337Z,22.60
2023-12-09T10:00:21.078Z,19.92
2023-12-09T10:02:52.408Z,19.80
2023-12-09T10:05:23.732Z,20.38
2023-12-09T10:07:53.245Z,18.08
2023-12-09T10:10:20.938Z,21.58
2023-12-09T10:12:48.398Z,20.92
2023-12-09T10:15:15.741Z,26.42
2023-12-09T10:17:44.025Z,24.38
2023-12-09T10:20:12.430Z,22.60
2023-12-09T10:22:41.271Z,20.70
2023-12-09T10:25:09.229Z,21.00
2023-12-09T10:27:36.657Z,18.08
2023-12-09T10:30:04.897Z,17.05
2023-12-09T10:35:04.522Z,17.25
2023-12-09T10:37:33.304Z,18.67
2023-12-09T10:40:05.334Z,18.38
2023-12-09T10:42:33.092Z,23.75
2023-12-09T10:45:05.089Z,21.85
2023-12-09T10:47:32.640Z,18.10
2023-12-09T10:50:00.084Z,17.95
2023-12-09T10:52:27.800Z,16.42
2023-12-09T10:54:55.388Z,14.90
2023-12-09T10:57:25.835Z,12.50
2023-12-09T10:59:55.272Z,12.05
2023-12-09T11:02:22.981Z,10.65
2023-12-09T11:04:51.826Z,11.02
2023-12-09T11:07:19.753Z,9.45
2023-12-09T11:09:47.866Z,9.25
2023-12-09T11:12:29.749Z,8.82
2023-12-09T11:15:09.090Z,10.05
2023-12-09T11:17:39.770Z,11.45
2023-12-09T11:20:16.159Z,10.88
2023-12-09T11:22:46.722Z,12.55
2023-12-09T11:25:27.500Z,11.35
2023-12-09T11:27:57.226Z,18.70
2023-12-09T11:30:38.880Z,13.40
2023-12-09T11:33:07.454Z,8.65
2023-12-09T11:35:36.451Z,6.30
2023-12-09T11:38:06.964Z,6.03
2023-12-09T11:40:34.754Z,6.00
2023-12-09T11:43:09.672Z,5.35
2023-12-09T11:45:38.458Z,5.57
2023-12-09T11:48:06.896Z,6.13
2023-12-09T11:50:34.584Z,5.85
2023-12-09T11:53:01.846Z,5.75
2023-12-09T11:55:30.678Z,6.13
2023-12-09T11:57:58.240Z,7.07
2023-12-09T12:00:25.533Z,6.30
2023-12-09T12:02:53.010Z,5.03
2023-12-09T12:05:21.287Z,6.35
2023-12-09T12:07:49.151Z,6.32
2023-12-09T12:10:16.565Z,5.95
2023-12-09T12:12:45.821Z,7.18
2023-12-09T12:15:14.072Z,6.97
2023-12-09T12:17:45.363Z,7.70
2023-12-09T12:20:14.132Z,8.65
2023-12-09T12:22:42.388Z,9.02
2023-12-09T12:25:10.891Z,8.85
2023-12-09T12:27:46.628Z,10.40
2023-12-09T12:30:17.376Z,11.77
2023-12-09T12:32:56.530Z,12.27
2023-12-09T12:35:26.479Z,14.20
2023-12-09T12:37:56.516Z,13.60
2023-12-09T12:40:24.068Z,14.40
2023-12-09T12:42:51.617Z,14.75
2023-12-09T12:45:27.048Z,16.00
2023-12-09T12:47:56.400Z,15.55
2023-12-09T12:50:23.785Z,16.15
2023-12-09T12:52:52.336Z,14.52
2023-12-09T12:55:19.821Z,17.10
2023-12-09T13:00:15.979Z,15.82
2023-12-09T13:02:44.716Z,12.27
2023-12-09T13:05:12.776Z,9.70
2023-12-09T13:10:13.096Z,9.23
2023-12-09T13:12:40.634Z,9.75
2023-12-09T13:15:08.749Z,9.48
2023-12-09T13:17:36.852Z,9.70
2023-12-09T13:22:32.063Z,8.05
2023-12-09T13:24:59.571Z,7.45
2023-12-09T13:27:27.932Z,10.85
2023-12-09T13:29:55.915Z,14.20
2023-12-09T13:32:23.177Z,13.57
2023-12-09T13:34:52.572Z,11.57
2023-12-09T13:37:20.205Z,8.85
2023-12-09T13:39:47.681Z,9.23
2023-12-09T13:42:16.323Z,10.35
2023-12-09T13:44:43.977Z,10.70
2023-12-09T13:47:11.346Z,7.35
2023-12-09T13:49:38.864Z,7.03
2023-12-09T13:52:06.770Z,8.43
2023-12-09T13:54:34.610Z,10.18
2023-12-09T13:57:02.103Z,11.68
2023-12-09T13:59:29.681Z,11.00
2023-12-09T14:01:57.824Z,12.32
2023-12-09T14:06:52.632Z,11.30
2023-12-09T14:09:20.213Z,10.77
2023-12-09T14:11:47.507Z,9.98
2023-12-09T14:14:15.274Z,10.60
2023-12-09T14:16:44.070Z,10.35
2023-12-09T14:19:14.502Z,9.95
2023-12-09T14:21:42.004Z,9.18
2023-12-09T14:24:09.996Z,9.20
2023-12-09T14:26:37.701Z,9.07
2023-12-09T14:29:05.102Z,8.18
2023-12-09T14:31:32.540Z,8.65
2023-12-09T14:34:03.182Z,8.15
2023-12-09T14:36:31.255Z,7.10
2023-12-09T14:38:58.653Z,8.27
2023-12-09T14:41:26.097Z,8.40
2023-12-09T14:43:59.679Z,8.18
2023-12-09T14:46:33.139Z,8.55
2023-12-09T14:49:01.588Z,8.35
2023-12-09T14:51:40.242Z,8.75
2023-12-09T14:54:16.525Z,9.98
2023-12-09T14:56:46.912Z,9.98
2023-12-09T14:59:16.715Z,8.98
2023-12-09T15:01:50.408Z,10.60
2023-12-09T15:04:18.653Z,12.25
2023-12-09T15:06:48.153Z,13.23
2023-12-09T15:09:17.602Z,15.40
2023-12-09T15:11:45.010Z,17.85
2023-12-09T15:14:12.510Z,16.95
2023-12-09T15:16:39.976Z,16.98
2023-12-09T15:19:09.975Z,16.02
2023-12-09T15:21:37.931Z,13.88
2023-12-09T15:24:06.924Z,12.05
2023-12-09T15:26:35.240Z,13.45
2023-12-09T15:29:02.579Z,13.07
2023-12-09T15:31:31.842Z,13.40
2023-12-09T15:34:00.483Z,13.65
2023-12-09T15:36:28.484Z,16.52
2023-12-09T15:38:55.922Z,15.50
2023-12-09T15:41:23.466Z,18.00
2023-12-09T15:43:51.226Z,16.95
2023-12-09T15:46:19.089Z,16.60
2023-12-09T15:48:46.831Z,20.50
2023-12-09T15:51:15.506Z,20.55
2023-12-09T15:53:43.143Z,26.00
2023-12-09T15:56:10.908Z,25.90
2023-12-09T15:58:38.379Z,30.10
2023-12-09T16:01:06.153Z,31.38
2023-12-09T16:03:33.869Z,33.30
2023-12-09T16:06:02.368Z,32.70
2023-12-09T16:10:57.296Z,31.40
2023-12-09T16:13:25.024Z,31.50
2023-12-09T16:15:53.073Z,28.25
2023-12-09T16:18:20.681Z,28.55
2023-12-09T16:20:48.096Z,27.60
2023-12-09T16:23:15.650Z,26.65
2023-12-09T16:25:43.149Z,25.95
2023-12-09T16:28:10.569Z,25.85
2023-12-09T16:30:38.623Z,25.58
2023-12-09T16:33:06.261Z,24.88
2023-12-09T16:35:33.753Z,28.00
2023-12-09T16:38:01.115Z,26.90
2023-12-09T16:40:28.877Z,20.27
2023-12-09T16:42:56.509Z,22.33
2023-12-09T16:45:24.258Z,17.88
2023-12-09T16:47:52.769Z,18.20
2023-12-09T16:50:20.326Z,17.05
2023-12-09T16:52:47.627Z,15.88
2023-12-09T16:55:16.492Z,14.73
2023-12-09T16:57:45.031Z,14.77
2023-12-09T17:00:12.790Z,14.68
2023-12-09T17:02:40.346Z,13.07
2023-12-09T17:05:11.345Z,14.35
2023-12-09T17:07:39.105Z,13.57
2023-12-09T17:10:08.881Z,10.40
2023-12-09T17:12:38.104Z,10.95
2023-12-09T17:15:05.853Z,11.07
2023-12-09T17:17:33.482Z,12.80
2023-12-09T17:20:00.845Z,15.18
2023-12-09T17:22:32.466Z,16.45
2023-12-09T17:25:00.105Z,17.05
2023-12-09T17:27:27.882Z,16.33
2023-12-09T17:29:55.309Z,15.63
2023-12-09T17:32:22.898Z,18.30
2023-12-09T17:34:50.959Z,21.27
2023-12-09T17:37:18.526Z,20.92
2023-12-09T17:39:46.050Z,19.83
2023-12-09T17:42:13.730Z,16.10
2023-12-09T17:44:41.186Z,18.40
2023-12-09T17:47:08.575Z,14.55
2023-12-09T17:49:36.125Z,11.30
2023-12-09T17:52:03.639Z,10.93
2023-12-09T17:54:31.280Z,11.20
2023-12-09T17:56:58.628Z,10.27
2023-12-09T17:59:26.167Z,9.90
2023-12-09T18:01:54.395Z,11.13
2023-12-09T18:06:49.113Z,11.90
2023-12-09T18:09:16.624Z,10.85
2023-12-09T18:11:44.240Z,11.60
2023-12-09T18:14:11.651Z,11.93
2023-12-09T18:16:39.103Z,10.77
2023-12-09T18:19:06.740Z,11.50
2023-12-09T18:21:34.593Z,10.48
2023-12-09T18:24:02.275Z,12.27
2023-12-09T18:26:32.861Z,11.80
2023-12-09T18:29:01.073Z,11.93
2023-12-09T18:31:29.207Z,12.73
2023-12-09T18:33:57.734Z,12.93
2023-12-09T18:36:25.467Z,11.80
2023-12-09T18:38:53.009Z,12.02
2023-12-09T18:41:20.543Z,12.68
2023-12-09T18:43:50.125Z,12.77
2023-12-09T18:46:17.967Z,13.18
2023-12-09T18:48:45.648Z,12.23
2023-12-09T18:51:13.184Z,12.23
2023-12-09T18:53:40.585Z,11.80
2023-12-09T18:56:08.285Z,11.60
2023-12-09T18:58:35.749Z,11.52
2023-12-09T19:01:08.040Z,10.80
2023-12-09T19:03:39.324Z,11.30
2023-12-09T19:06:07.513Z,11.73
2023-12-09T19:08:35.164Z,11.30
2023-12-09T19:11:02.578Z,10.57
2023-12-09T19:13:30.037Z,11.55
2023-12-09T19:15:59.736Z,11.20
2023-12-09T19:18:27.277Z,11.48
2023-12-09T19:20:54.729Z,13.05
2023-12-09T19:23:22.164Z,12.93
2023-12-09T19:25:49.636Z,12.50
2023-12-09T19:28:17.281Z,11.55
2023-12-09T19:30:44.728Z,13.23
2023-12-09T19:33:12.544Z,13.55
2023-12-09T19:35:40.059Z,12.55
2023-12-09T19:38:07.587Z,13.32
2023-12-09T19:40:35.760Z,12.50
2023-12-09T19:45:30.336Z,12.80
2023-12-09T19:47:58.928Z,13.32
2023-12-09T19:50:26.337Z,13.75
2023-12-09T19:52:53.916Z,12.55
2023-12-09T19:55:21.432Z,11.48
2023-12-09T19:57:49.025Z,13.90
2023-12-09T20:00:16.651Z,12.82
2023-12-09T20:02:45.766Z,13.85
2023-12-09T20:05:13.908Z,13.45
2023-12-09T20:07:41.376Z,12.93
2023-12-09T20:10:09.390Z,12.32
2023-12-09T20:12:36.782Z,12.10
2023-12-09T20:15:07.663Z,12.15
2023-12-09T20:17:35.307Z,11.57
2023-12-09T20:20:02.825Z,11.02
2023-12-09T20:22:31.827Z,11.88
2023-12-09T20:24:59.436Z,13.32
2023-12-09T20:27:26.978Z,11.07
2023-12-09T20:29:55.521Z,12.10
2023-12-09T20:32:23.298Z,12.10
2023-12-09T20:34:50.852Z,13.52
2023-12-09T20:37:18.427Z,11.70
2023-12-09T20:39:45.822Z,13.63
2023-12-09T20:42:13.402Z,12.98
2023-12-09T20:44:41.584Z,13.40
2023-12-09T20:49:37.359Z,13.60
2023-12-09T20:52:05.177Z,13.02
2023-12-09T20:54:32.643Z,11.77
2023-12-09T20:57:00.182Z,10.93
2023-12-09T20:59:27.728Z,13.85
2023-12-09T21:01:57.043Z,14.00
2023-12-09T21:04:24.656Z,13.70
2023-12-09T21:06:52.443Z,15.10
2023-12-09T21:09:22.570Z,13.95
2023-12-09T21:11:50.123Z,13.13
2023-12-09T21:14:17.878Z,13.27
2023-12-09T21:16:45.290Z,13.82
2023-12-09T21:19:13.248Z,12.93
2023-12-09T21:21:40.992Z,13.90
2023-12-09T21:24:08.632Z,12.90
2023-12-09T21:26:39.265Z,13.32
2023-12-09T21:29:08.074Z,13.65
2023-12-09T21:31:35.466Z,14.07
2023-12-09T21:34:03.838Z,13.95
2023-12-09T21:36:31.331Z,13.93
2023-12-09T21:38:58.789Z,13.60
2023-12-09T21:41:26.121Z,15.45
2023-12-09T21:43:53.548Z,14.00
2023-12-09T21:46:21.568Z,14.57
2023-12-09T21:51:17.938Z,14.05
2023-12-09T21:53:45.665Z,15.13
2023-12-09T21:56:26.298Z,14.23
2023-12-09T21:58:54.151Z,13.85
2023-12-09T22:01:22.279Z,14.10
2023-12-09T22:03:50.629Z,14.02
2023-12-09T22:08:45.757Z,13.50
2023-12-09T22:11:13.690Z,14.63
2023-12-09T22:13:41.826Z,14.05
2023-12-09T22:16:09.669Z,13.35
2023-12-09T22:18:37.690Z,14.07
2023-12-09T22:21:05.428Z,13.75
2023-12-09T22:23:32.801Z,13.13
2023-12-09T22:26:00.240Z,13.60
2023-12-09T22:28:31.698Z,13.57
2023-12-09T22:30:59.171Z,13.65
2023-12-09T22:33:26.634Z,14.00
2023-12-09T22:35:54.191Z,14.85
2023-12-09T22:38:21.476Z,14.07
2023-12-09T22:40:49.042Z,14.13
2023-12-09T22:43:16.457Z,14.50
2023-12-09T22:45:43.863Z,12.60
2023-12-09T22:48:11.683Z,14.38
2023-12-09T22:50:39.126Z,15.75
2023-12-09T22:53:06.578Z,15.10
2023-12-09T22:55:34.332Z,13.63
2023-12-09T22:58:01.701Z,15.20
2023-12-09T23:00:33.292Z,15.55
2023-12-09T23:03:02.867Z,15.00
2023-12-09T23:05:30.290Z,15.77
2023-12-09T23:07:58.284Z,13.85
2023-12-09T23:10:25.875Z,14.55
2023-12-09T23:12:53.394Z,14.63
2023-12-09T23:15:22.353Z,13.93
2023-12-09T23:17:50.183Z,14.70
2023-12-09T23:20:17.683Z,15.23
2023-12-09T23:22:45.111Z,16.88
2023-12-09T23:25:12.512Z,13.93
2023-12-09T23:27:39.907Z,15.45
2023-12-09T23:30:08.049Z,15.02
2023-12-09T23:35:02.760Z,14.07
2023-12-09T23:37:30.319Z,14.70
2023-12-09T23:39:57.660Z,16.17
2023-12-09T23:42:25.100Z,14.27
2023-12-09T23:44:52.367Z,15.00
2023-12-09T23:47:19.858Z,14.15
2023-12-09T23:49:47.423Z,13.63
2023-12-09T23:52:14.973Z,15.20
2023-12-09T23:54:42.515Z,14.25
2023-12-09T23:57:10.122Z,15.00
2023-12-09T23:59:37.439Z,15.55
